createdAt,value
2022-09-27T00:01:11.210Z,9.98
2022-09-27T00:03:38.782Z,10.25
2022-09-27T00:06:20.776Z,9.60
2022-09-27T00:08:47.551Z,6.43
2022-09-27T00:11:29.974Z,8.07
2022-09-27T00:13:58.813Z,8.43
2022-09-27T00:16:34.300Z,8.70
2022-09-27T00:19:04.408Z,9.63
2022-09-27T00:21:32.107Z,7.53
2022-09-27T00:23:59.599Z,7.85
2022-09-27T00:26:27.500Z,8.45
2022-09-27T00:28:54.453Z,8.30
2022-09-27T00:31:30.636Z,11.65
2022-09-27T00:34:00.424Z,14.25
2022-09-27T00:36:28.873Z,14.13
2022-09-27T00:38:56.152Z,13.70
2022-09-27T00:41:26.267Z,12.40
2022-09-27T00:43:55.947Z,12.20
2022-09-27T00:46:45.355Z,12.48
2022-09-27T00:49:18.274Z,14.10
2022-09-27T00:51:48.072Z,13.18
2022-09-27T00:54:18.219Z,12.93
2022-09-27T00:56:46.741Z,12.73
2022-09-27T00:59:24.859Z,12.90
2022-09-27T01:01:51.626Z,13.32
2022-09-27T01:04:24.051Z,13.85
2022-09-27T01:06:51.792Z,12.80
2022-09-27T01:09:18.884Z,13.27
2022-09-27T01:11:58.295Z,12.98
2022-09-27T01:14:41.449Z,13.63
2022-09-27T01:17:11.146Z,13.80
2022-09-27T01:19:52.848Z,12.73
2022-09-27T01:22:25.168Z,13.00
2022-09-27T01:25:07.335Z,12.90
2022-09-27T01:28:07.470Z,12.55
2022-09-27T01:30:56.177Z,12.73
2022-09-27T01:33:31.468Z,12.45
2022-09-27T01:36:09.994Z,12.80
2022-09-27T01:38:47.473Z,12.35
2022-09-27T01:41:19.240Z,13.18
2022-09-27T01:44:16.341Z,13.18
2022-09-27T01:46:55.534Z,13.38
2022-09-27T01:50:00.707Z,12.75
2022-09-27T01:52:35.237Z,13.52
2022-09-27T01:55:06.698Z,13.10
2022-09-27T01:58:34.827Z,12.15
2022-09-27T02:01:02.771Z,12.60
2022-09-27T02:03:37.131Z,12.60
2022-09-27T02:06:40.960Z,11.15
2022-09-27T02:09:30.978Z,11.32
2022-09-27T02:12:31.207Z,11.45
2022-09-27T02:15:01.089Z,11.40
2022-09-27T02:17:43.084Z,11.35
2022-09-27T02:20:58.678Z,10.88
2022-09-27T02:23:36.856Z,10.32
2022-09-27T02:26:24.380Z,10.85
2022-09-27T02:29:08.425Z,11.23
2022-09-27T02:31:43.485Z,11.32
2022-09-27T02:34:17.055Z,7.88
2022-09-27T02:36:44.372Z,9.27
2022-09-27T02:39:12.289Z,10.35
2022-09-27T02:41:39.805Z,10.40
2022-09-27T02:44:10.735Z,9.73
2022-09-27T02:46:55.474Z,9.52
2022-09-27T02:49:31.769Z,7.82
2022-09-27T02:52:58.819Z,7.38
2022-09-27T02:55:51.846Z,9.55
2022-09-27T02:59:08.165Z,8.90
2022-09-27T03:01:57.275Z,9.45
2022-09-27T03:04:39.792Z,9.60
2022-09-27T03:07:07.077Z,10.20
2022-09-27T03:09:44.601Z,9.85
2022-09-27T03:12:11.885Z,9.52
2022-09-27T03:14:39.874Z,9.27
2022-09-27T03:17:27.304Z,8.98
2022-09-27T03:20:13.036Z,8.40
2022-09-27T03:23:05.927Z,8.25
2022-09-27T03:25:32.695Z,8.10
2022-09-27T03:27:59.470Z,9.18
2022-09-27T03:30:26.478Z,9.45
2022-09-27T03:32:53.737Z,10.07
2022-09-27T03:35:39.270Z,10.88
2022-09-27T03:38:07.368Z,9.88
2022-09-27T03:40:34.762Z,9.70
2022-09-27T03:43:02.128Z,10.32
2022-09-27T03:45:30.949Z,10.77
2022-09-27T03:48:00.845Z,10.93
2022-09-27T03:50:27.670Z,10.57
2022-09-27T03:52:54.625Z,9.90
2022-09-27T03:55:22.428Z,9.15
2022-09-27T03:57:49.339Z,10.05
2022-09-27T04:00:18.408Z,9.93
2022-09-27T04:02:46.006Z,9.85
2022-09-27T04:05:27.119Z,8.85
2022-09-27T04:07:59.860Z,8.25
2022-09-27T04:10:28.270Z,8.02
2022-09-27T04:12:55.142Z,9.20
2022-09-27T04:15:26.078Z,10.00
2022-09-27T04:18:12.939Z,11.10
2022-09-27T04:20:59.873Z,12.55
2022-09-27T04:23:30.123Z,11.52
2022-09-27T04:25:57.559Z,10.07
2022-09-27T04:28:42.852Z,8.90
2022-09-27T04:31:10.085Z,9.30
2022-09-27T04:34:12.081Z,9.48
2022-09-27T04:36:39.002Z,8.80
2022-09-27T04:39:10.163Z,8.32
2022-09-27T04:41:43.037Z,8.77
2022-09-27T04:44:09.879Z,8.25
2022-09-27T04:46:36.779Z,8.20
2022-09-27T04:49:04.170Z,7.90
2022-09-27T04:51:33.277Z,8.70
2022-09-27T04:54:00.202Z,9.70
2022-09-27T04:56:30.286Z,7.88
2022-09-27T04:58:57.183Z,7.45
2022-09-27T05:01:24.051Z,8.50
2022-09-27T05:04:00.105Z,8.68
2022-09-27T05:06:28.500Z,9.52
2022-09-27T05:08:58.943Z,8.27
2022-09-27T05:11:27.930Z,7.20
2022-09-27T05:14:14.210Z,7.00
2022-09-27T05:16:51.009Z,7.60
2022-09-27T05:19:39.529Z,7.03
2022-09-27T05:22:12.126Z,7.85
2022-09-27T05:24:40.441Z,7.75
2022-09-27T05:27:09.911Z,6.60
2022-09-27T05:29:36.796Z,8.98
2022-09-27T05:32:11.388Z,8.02
2022-09-27T05:34:38.387Z,7.00
2022-09-27T05:37:06.745Z,7.57
2022-09-27T05:39:37.962Z,6.15
2022-09-27T05:42:07.223Z,7.13
2022-09-27T05:44:35.497Z,6.78
2022-09-27T05:47:04.368Z,6.40
2022-09-27T05:49:32.732Z,6.30
2022-09-27T05:52:01.452Z,6.63
2022-09-27T05:54:29.992Z,6.95
2022-09-27T05:57:00.170Z,7.43
2022-09-27T06:00:00.511Z,7.67
2022-09-27T06:02:39.128Z,6.17
2022-09-27T06:05:26.525Z,6.90
2022-09-27T06:08:22.136Z,6.87
2022-09-27T06:10:51.975Z,6.43
2022-09-27T06:13:19.050Z,7.17
2022-09-27T06:15:47.306Z,7.33
2022-09-27T06:18:19.010Z,6.70
2022-09-27T06:20:48.872Z,7.10
2022-09-27T06:23:22.590Z,6.65
2022-09-27T06:25:52.073Z,6.55
2022-09-27T06:28:37.172Z,6.22
2022-09-27T06:31:08.257Z,6.38
2022-09-27T06:33:41.132Z,5.85
2022-09-27T06:36:08.839Z,5.65
2022-09-27T06:38:38.437Z,4.85
2022-09-27T06:41:11.568Z,4.82
2022-09-27T06:43:50.406Z,5.03
2022-09-27T06:46:35.282Z,4.50
2022-09-27T06:49:23.267Z,4.65
2022-09-27T06:51:50.298Z,4.90
2022-09-27T06:54:17.193Z,4.78
2022-09-27T06:56:48.864Z,5.25
2022-09-27T06:59:34.147Z,5.80
2022-09-27T07:02:19.351Z,7.43
2022-09-27T07:05:18.789Z,7.03
2022-09-27T07:08:12.192Z,7.13
2022-09-27T07:10:40.271Z,6.88
2022-09-27T07:13:09.327Z,6.70
2022-09-27T07:15:38.018Z,6.55
2022-09-27T07:18:09.118Z,6.82
2022-09-27T07:20:38.385Z,7.78
2022-09-27T07:23:07.506Z,7.90
2022-09-27T07:25:35.991Z,9.15
2022-09-27T07:28:06.090Z,8.15
2022-09-27T07:30:34.509Z,7.95
2022-09-27T07:33:03.966Z,6.80
2022-09-27T07:35:31.006Z,7.13
2022-09-27T07:37:59.405Z,7.07
2022-09-27T07:40:26.898Z,7.15
2022-09-27T07:42:58.599Z,7.63
2022-09-27T07:45:26.291Z,7.95
2022-09-27T07:48:13.608Z,8.15
2022-09-27T07:50:57.413Z,8.77
2022-09-27T07:53:43.002Z,9.30
2022-09-27T07:56:34.631Z,8.75
2022-09-27T07:59:02.523Z,7.50
2022-09-27T08:01:30.176Z,9.02
2022-09-27T08:03:58.620Z,7.93
2022-09-27T08:06:26.449Z,9.00
2022-09-27T08:08:54.876Z,9.13
2022-09-27T08:11:21.910Z,9.95
2022-09-27T08:13:52.661Z,9.23
2022-09-27T08:16:23.514Z,8.77
2022-09-27T08:19:15.103Z,8.65
2022-09-27T08:22:00.433Z,8.70
2022-09-27T08:24:33.881Z,8.18
2022-09-27T08:27:10.709Z,8.80
2022-09-27T08:29:47.807Z,9.18
2022-09-27T08:32:22.153Z,9.32
2022-09-27T08:34:49.835Z,9.18
2022-09-27T08:37:16.872Z,8.75
2022-09-27T08:39:47.726Z,7.40
2022-09-27T08:42:32.411Z,7.32
2022-09-27T08:45:08.368Z,7.38
2022-09-27T08:47:44.431Z,8.15
2022-09-27T08:50:24.676Z,6.70
2022-09-27T08:53:14.162Z,6.40
2022-09-27T08:55:45.547Z,6.38
2022-09-27T08:58:26.652Z,6.00
2022-09-27T09:00:56.974Z,6.15
2022-09-27T09:03:40.176Z,5.93
2022-09-27T09:06:33.324Z,6.18
2022-09-27T09:09:18.577Z,5.38
2022-09-27T09:12:21.950Z,5.03
2022-09-27T09:15:29.759Z,4.30
2022-09-27T09:18:17.687Z,4.03
2022-09-27T09:21:31.674Z,4.47
2022-09-27T09:24:16.979Z,4.13
2022-09-27T09:26:57.484Z,4.70
2022-09-27T09:29:30.185Z,4.80
2022-09-27T09:32:22.945Z,4.55
2022-09-27T09:34:57.146Z,3.90
2022-09-27T09:37:36.421Z,3.78
2022-09-27T09:40:17.543Z,3.55
2022-09-27T09:42:56.396Z,3.65
2022-09-27T09:45:30.374Z,3.80
2022-09-27T09:48:03.457Z,3.60
2022-09-27T09:50:42.403Z,3.50
2022-09-27T09:53:37.313Z,4.40
2022-09-27T09:56:17.588Z,5.20
2022-09-27T09:58:51.046Z,5.35
2022-09-27T10:01:27.854Z,5.00
2022-09-27T10:03:56.543Z,5.00
2022-09-27T10:06:25.411Z,4.57
2022-09-27T10:08:54.905Z,4.80
2022-09-27T10:11:43.281Z,4.45
2022-09-27T10:14:19.893Z,4.90
2022-09-27T10:16:59.974Z,5.47
2022-09-27T10:19:33.086Z,5.57
2022-09-27T10:22:16.947Z,7.22
2022-09-27T10:25:03.190Z,7.63
2022-09-27T10:27:55.944Z,7.88
2022-09-27T10:30:33.002Z,7.95
2022-09-27T10:33:06.762Z,7.53
2022-09-27T10:35:45.088Z,6.90
2022-09-27T10:38:20.578Z,6.88
2022-09-27T10:40:49.701Z,6.95
2022-09-27T10:43:34.455Z,6.22
2022-09-27T10:46:28.639Z,6.28
2022-09-27T10:49:12.978Z,6.88
2022-09-27T10:51:40.582Z,6.40
2022-09-27T10:54:20.398Z,5.72
2022-09-27T10:56:56.686Z,6.20
2022-09-27T10:59:24.342Z,6.22
2022-09-27T11:01:52.959Z,6.68
2022-09-27T11:04:37.166Z,7.43
2022-09-27T11:07:16.574Z,7.47
2022-09-27T11:09:55.704Z,7.35
2022-09-27T11:12:25.316Z,7.60
2022-09-27T11:14:59.178Z,7.32
2022-09-27T11:17:43.739Z,6.70
2022-09-27T11:20:10.570Z,6.32
2022-09-27T11:23:05.987Z,5.32
2022-09-27T11:26:09.490Z,4.30
2022-09-27T11:28:54.906Z,3.88
2022-09-27T11:31:50.649Z,3.92
2022-09-27T11:34:43.521Z,5.40
2022-09-27T11:37:24.258Z,4.40
2022-09-27T11:40:18.512Z,4.95
2022-09-27T11:43:10.870Z,5.95
2022-09-27T11:46:15.391Z,7.47
2022-09-27T11:48:56.621Z,6.25
2022-09-27T11:52:01.185Z,7.32
2022-09-27T11:54:35.802Z,6.65
2022-09-27T11:57:16.394Z,6.20
2022-09-27T12:00:20.661Z,5.90
2022-09-27T12:03:49.558Z,7.10
2022-09-27T12:06:32.208Z,8.73
2022-09-27T12:09:07.911Z,8.65
2022-09-27T12:11:52.325Z,8.40
2022-09-27T12:14:30.517Z,8.10
2022-09-27T12:16:59.843Z,7.78
2022-09-27T12:19:32.887Z,7.55
2022-09-27T12:22:11.652Z,7.43
2022-09-27T12:24:43.917Z,6.88
2022-09-27T12:27:46.645Z,7.65
2022-09-27T12:30:19.773Z,6.75
2022-09-27T12:33:01.179Z,7.55
2022-09-27T12:35:31.051Z,7.15
2022-09-27T12:38:09.449Z,7.35
2022-09-27T12:40:58.728Z,7.05
2022-09-27T12:43:39.258Z,6.85
2022-09-27T12:46:35.133Z,7.03
2022-09-27T12:49:15.288Z,6.75
2022-09-27T12:51:42.474Z,6.72
2022-09-27T12:54:12.568Z,5.78
2022-09-27T12:56:49.938Z,5.18
2022-09-27T12:59:21.514Z,5.20
2022-09-27T13:01:58.455Z,4.65
2022-09-27T13:05:04.432Z,4.70
2022-09-27T13:08:19.008Z,5.38
2022-09-27T13:11:15.619Z,5.35
2022-09-27T13:13:43.404Z,4.32
2022-09-27T13:16:12.298Z,4.70
2022-09-27T13:18:53.097Z,4.50
2022-09-27T13:21:49.959Z,4.78
2022-09-27T13:24:46.943Z,4.22
2022-09-27T13:27:35.243Z,5.07
2022-09-27T13:30:13.002Z,4.47
2022-09-27T13:33:21.891Z,4.10
2022-09-27T13:36:24.965Z,4.28
2022-09-27T13:39:11.391Z,3.90
2022-09-27T13:42:31.708Z,4.38
2022-09-27T13:45:28.217Z,5.57
2022-09-27T13:47:59.145Z,5.38
2022-09-27T13:50:51.705Z,7.28
2022-09-27T13:53:34.335Z,7.70
2022-09-27T13:56:02.486Z,7.20
2022-09-27T13:59:14.719Z,6.95
2022-09-27T14:01:51.224Z,6.35
2022-09-27T14:04:28.994Z,6.28
2022-09-27T14:07:00.047Z,5.38
2022-09-27T14:09:56.429Z,6.15
2022-09-27T14:12:35.965Z,5.40
2022-09-27T14:15:09.172Z,6.03
2022-09-27T14:17:45.731Z,5.57
2022-09-27T14:20:38.773Z,4.82
2022-09-27T14:23:18.123Z,4.50
2022-09-27T14:25:47.830Z,3.90
2022-09-27T14:28:41.714Z,6.50
2022-09-27T14:31:22.501Z,4.43
2022-09-27T14:34:08.988Z,6.25
2022-09-27T14:36:57.547Z,4.68
2022-09-27T14:39:35.617Z,4.75
2022-09-27T14:42:26.423Z,4.45
2022-09-27T14:44:55.818Z,5.72
2022-09-27T14:47:25.328Z,3.85
2022-09-27T14:49:55.738Z,3.75
2022-09-27T14:52:28.543Z,4.40
2022-09-27T14:54:57.268Z,4.13
2022-09-27T14:57:25.690Z,4.00
2022-09-27T14:59:53.278Z,3.78
2022-09-27T15:02:23.576Z,3.85
2022-09-27T15:04:51.727Z,3.60
2022-09-27T15:07:20.010Z,3.63
2022-09-27T15:09:47.119Z,4.40
2022-09-27T15:12:22.965Z,4.30
2022-09-27T15:14:53.984Z,4.72
2022-09-27T15:17:22.273Z,4.88
2022-09-27T15:19:58.283Z,4.60
2022-09-27T15:22:35.833Z,4.22
2022-09-27T15:25:19.428Z,3.78
2022-09-27T15:27:50.033Z,4.90
2022-09-27T15:30:29.053Z,4.30
2022-09-27T15:32:56.932Z,4.32
2022-09-27T15:35:28.083Z,4.57
2022-09-27T15:38:22.603Z,4.20
2022-09-27T15:40:49.345Z,4.10
2022-09-27T15:43:30.025Z,4.32
2022-09-27T15:46:02.074Z,4.55
2022-09-27T15:48:32.147Z,4.45
2022-09-27T15:50:59.916Z,4.13
2022-09-27T15:53:46.913Z,3.88
2022-09-27T15:56:15.285Z,4.28
2022-09-27T15:58:43.754Z,4.45
2022-09-27T16:01:17.730Z,4.35
2022-09-27T16:03:44.985Z,4.25
2022-09-27T16:06:14.059Z,4.85
2022-09-27T16:08:41.175Z,4.70
2022-09-27T16:11:14.025Z,5.03
2022-09-27T16:13:41.112Z,4.43
2022-09-27T16:16:14.697Z,4.85
2022-09-27T16:18:42.051Z,4.90
2022-09-27T16:21:09.328Z,4.90
2022-09-27T16:23:36.629Z,4.53
2022-09-27T16:26:03.532Z,4.93
2022-09-27T16:28:30.232Z,5.33
2022-09-27T16:31:02.786Z,4.57
2022-09-27T16:33:32.668Z,4.50
2022-09-27T16:36:03.565Z,4.80
2022-09-27T16:38:30.369Z,4.97
2022-09-27T16:41:02.615Z,4.00
2022-09-27T16:43:31.817Z,4.80
2022-09-27T16:46:09.050Z,4.50
2022-09-27T16:48:35.951Z,4.78
2022-09-27T16:51:50.273Z,4.85
2022-09-27T16:54:17.707Z,4.90
2022-09-27T16:56:45.077Z,4.82
2022-09-27T16:59:12.108Z,4.97
2022-09-27T17:01:39.034Z,5.22
2022-09-27T17:04:06.018Z,5.13
2022-09-27T17:06:32.906Z,6.05
2022-09-27T17:09:04.188Z,5.75
2022-09-27T17:11:31.940Z,6.35
2022-09-27T17:13:58.708Z,5.68
2022-09-27T17:16:26.049Z,6.75
2022-09-27T17:18:52.883Z,6.00
2022-09-27T17:21:19.739Z,6.53
2022-09-27T17:23:47.104Z,6.80
2022-09-27T17:26:19.580Z,6.18
2022-09-27T17:28:47.510Z,7.30
2022-09-27T17:31:15.990Z,7.00
2022-09-27T17:33:46.150Z,5.65
2022-09-27T17:36:18.697Z,5.22
2022-09-27T17:38:48.654Z,5.40
2022-09-27T17:41:18.890Z,5.05
2022-09-27T17:43:50.318Z,4.70
2022-09-27T17:46:19.787Z,6.28
2022-09-27T17:49:06.121Z,6.57
2022-09-27T17:51:34.680Z,7.40
2022-09-27T17:54:01.509Z,6.82
2022-09-27T17:56:28.494Z,7.35
2022-09-27T17:58:56.696Z,6.90
2022-09-27T18:01:25.205Z,7.00
2022-09-27T18:03:54.519Z,8.23
2022-09-27T18:06:23.073Z,8.35
2022-09-27T18:08:50.927Z,8.10
2022-09-27T18:11:25.322Z,8.93
2022-09-27T18:13:52.133Z,7.25
2022-09-27T18:16:19.243Z,7.72
2022-09-27T18:18:48.229Z,8.98
2022-09-27T18:21:21.762Z,9.43
2022-09-27T18:23:51.660Z,8.60
2022-09-27T18:26:19.995Z,8.73
2022-09-27T18:28:46.792Z,7.28
2022-09-27T18:31:18.720Z,8.35
2022-09-27T18:33:46.167Z,8.77
2022-09-27T18:36:15.861Z,9.15
2022-09-27T18:38:43.799Z,8.25
2022-09-27T18:41:16.063Z,8.25
2022-09-27T18:43:44.690Z,7.40
2022-09-27T18:46:34.594Z,6.83
2022-09-27T18:49:08.220Z,7.97
2022-09-27T18:51:37.460Z,8.80
2022-09-27T18:54:13.149Z,8.40
2022-09-27T18:56:41.130Z,8.05
2022-09-27T18:59:09.143Z,8.30
2022-09-27T19:01:45.726Z,6.35
2022-09-27T19:04:23.966Z,7.38
2022-09-27T19:06:54.639Z,8.30
2022-09-27T19:09:21.714Z,8.80
2022-09-27T19:11:48.813Z,8.10
2022-09-27T19:14:18.870Z,8.90
2022-09-27T19:16:47.340Z,15.13
2022-09-27T19:19:16.352Z,9.30
2022-09-27T19:21:43.346Z,10.37
2022-09-27T19:24:10.264Z,10.95
2022-09-27T19:26:37.230Z,10.87
2022-09-27T19:29:05.086Z,9.55
2022-09-27T19:31:32.228Z,10.02
2022-09-27T19:34:00.540Z,9.68
2022-09-27T19:36:27.958Z,7.45
2022-09-27T19:38:56.469Z,8.47
2022-09-27T19:41:23.326Z,10.80
2022-09-27T19:43:52.049Z,12.47
2022-09-27T19:46:20.109Z,10.67
2022-09-27T19:48:48.787Z,10.87
2022-09-27T19:51:21.908Z,10.43
2022-09-27T19:53:49.609Z,9.33
2022-09-27T19:56:16.860Z,9.73
2022-09-27T19:58:44.138Z,12.53
2022-09-27T20:01:12.131Z,11.93
2022-09-27T20:03:41.653Z,12.93
2022-09-27T20:06:11.196Z,11.90
2022-09-27T20:08:38.614Z,10.70
2022-09-27T20:11:08.329Z,10.37
2022-09-27T20:13:36.621Z,8.57
2022-09-27T20:16:09.524Z,9.63
2022-09-27T20:18:42.070Z,10.17
2022-09-27T20:21:09.385Z,11.50
2022-09-27T20:23:36.549Z,9.97
2022-09-27T20:26:24.253Z,11.40
2022-09-27T20:28:57.088Z,11.03
2022-09-27T20:31:29.943Z,11.23
2022-09-27T20:33:57.524Z,10.50
2022-09-27T20:36:33.112Z,12.33
2022-09-27T20:39:03.285Z,12.60
2022-09-27T20:41:33.593Z,20.70
2022-09-27T20:44:05.922Z,13.93
2022-09-27T20:46:33.914Z,10.13
2022-09-27T20:49:06.586Z,11.07
2022-09-27T20:51:36.667Z,11.73
2022-09-27T20:54:05.498Z,11.00
2022-09-27T20:56:35.612Z,11.90
2022-09-27T20:59:05.585Z,12.77
2022-09-27T21:01:33.474Z,9.60
2022-09-27T21:04:02.698Z,10.50
2022-09-27T21:06:31.528Z,10.53
2022-09-27T21:09:00.058Z,10.57
2022-09-27T21:11:27.656Z,9.67
2022-09-27T21:13:54.681Z,9.57
2022-09-27T21:16:23.825Z,9.50
2022-09-27T21:18:55.708Z,11.03
2022-09-27T21:21:24.494Z,8.70
2022-09-27T21:23:57.325Z,10.17
2022-09-27T21:26:26.201Z,10.00
2022-09-27T21:28:55.459Z,10.30
2022-09-27T21:31:27.520Z,10.50
2022-09-27T21:33:58.589Z,10.53
2022-09-27T21:36:28.457Z,9.73
2022-09-27T21:38:56.052Z,9.93
2022-09-27T21:41:23.994Z,9.63
2022-09-27T21:43:50.994Z,9.13
2022-09-27T21:46:20.372Z,10.83
2022-09-27T21:48:49.175Z,10.47
2022-09-27T21:51:22.362Z,9.67
2022-09-27T21:53:51.645Z,10.00
2022-09-27T21:56:19.783Z,10.53
2022-09-27T21:58:46.603Z,8.73
2022-09-27T22:01:20.452Z,9.90
2022-09-27T22:03:48.564Z,10.60
2022-09-27T22:06:21.689Z,10.87
2022-09-27T22:08:49.968Z,10.77
2022-09-27T22:11:19.979Z,11.23
2022-09-27T22:13:47.588Z,11.47
2022-09-27T22:16:16.469Z,11.10
2022-09-27T22:18:44.858Z,10.82
2022-09-27T22:21:14.428Z,11.27
2022-09-27T22:23:41.441Z,12.63
2022-09-27T22:26:17.806Z,13.10
2022-09-27T22:28:45.914Z,11.90
2022-09-27T22:31:15.861Z,12.00
2022-09-27T22:33:43.217Z,11.80
2022-09-27T22:36:10.012Z,14.03
2022-09-27T22:38:36.777Z,9.47
2022-09-27T22:41:04.340Z,11.50
2022-09-27T22:43:31.757Z,10.97
2022-09-27T22:46:02.785Z,12.57
2022-09-27T22:48:30.933Z,12.67
2022-09-27T22:50:59.686Z,12.73
2022-09-27T22:53:28.130Z,12.10
2022-09-27T22:56:04.504Z,12.20
2022-09-27T22:58:32.248Z,13.00
2022-09-27T23:00:59.959Z,12.73
2022-09-27T23:03:26.779Z,11.87
2022-09-27T23:05:53.595Z,11.17
2022-09-27T23:08:21.529Z,11.67
2022-09-27T23:10:48.346Z,11.87
2022-09-27T23:13:15.136Z,12.80
2022-09-27T23:15:42.088Z,12.73
2022-09-27T23:18:10.069Z,12.80
2022-09-27T23:20:37.174Z,12.37
2022-09-27T23:23:03.917Z,12.83
2022-09-27T23:25:30.665Z,11.97
2022-09-27T23:27:57.495Z,10.80
2022-09-27T23:30:25.701Z,11.73
2022-09-27T23:32:54.307Z,12.87
2022-09-27T23:35:22.161Z,12.57
2022-09-27T23:37:53.207Z,12.47
2022-09-27T23:40:19.970Z,12.67
2022-09-27T23:42:46.752Z,12.60
2022-09-27T23:45:14.228Z,9.87
2022-09-27T23:47:41.027Z,11.20
2022-09-27T23:50:08.733Z,11.77
2022-09-27T23:52:35.490Z,12.43
2022-09-27T23:55:02.316Z,12.67
2022-09-27T23:57:30.707Z,13.00
2022-09-27T23:59:57.515Z,14.10
